sensor_id;sensor_type;location;lat;lon;timestamp;temperature;humidity
84902;DHT22;75166;51.198;6.010;2024-03-02T00:02:01;10.70;67.00
84902;DHT22;75166;51.198;6.010;2024-03-02T00:04:27;10.60;66.90
84902;DHT22;75166;51.198;6.010;2024-03-02T00:06:53;10.60;66.80
84902;DHT22;75166;51.198;6.010;2024-03-02T00:09:20;10.60;66.90
84902;DHT22;75166;51.198;6.010;2024-03-02T00:11:45;10.60;67.00
84902;DHT22;75166;51.198;6.010;2024-03-02T00:14:11;10.60;67.00
84902;DHT22;75166;51.198;6.010;2024-03-02T00:16:37;10.60;67.00
84902;DHT22;75166;51.198;6.010;2024-03-02T00:19:03;10.60;67.00
84902;DHT22;75166;51.198;6.010;2024-03-02T00:21:32;10.60;67.00
84902;DHT22;75166;51.198;6.010;2024-03-02T00:23:58;10.60;66.90
84902;DHT22;75166;51.198;6.010;2024-03-02T00:26:24;10.60;66.90
84902;DHT22;75166;51.198;6.010;2024-03-02T00:28:54;10.60;66.80
84902;DHT22;75166;51.198;6.010;2024-03-02T00:31:22;10.60;66.80
84902;DHT22;75166;51.198;6.010;2024-03-02T00:33:49;10.60;66.80
84902;DHT22;75166;51.198;6.010;2024-03-02T00:36:16;10.60;67.00
84902;DHT22;75166;51.198;6.010;2024-03-02T00:38:50;10.60;67.00
84902;DHT22;75166;51.198;6.010;2024-03-02T00:44:04;10.60;66.90
84902;DHT22;75166;51.198;6.010;2024-03-02T00:46:39;10.60;66.90
84902;DHT22;75166;51.198;6.010;2024-03-02T00:51:36;10.60;66.90
84902;DHT22;75166;51.198;6.010;2024-03-02T00:54:04;10.60;66.80
84902;DHT22;75166;51.198;6.010;2024-03-02T00:56:31;10.60;66.90
84902;DHT22;75166;51.198;6.010;2024-03-02T00:58:57;10.60;67.00
84902;DHT22;75166;51.198;6.010;2024-03-02T01:01:23;10.60;67.00
84902;DHT22;75166;51.198;6.010;2024-03-02T01:03:49;10.60;67.00
84902;DHT22;75166;51.198;6.010;2024-03-02T01:06:16;10.60;67.00
84902;DHT22;75166;51.198;6.010;2024-03-02T01:08:42;10.60;66.90
84902;DHT22;75166;51.198;6.010;2024-03-02T01:11:08;10.70;66.90
84902;DHT22;75166;51.198;6.010;2024-03-02T01:13:34;10.70;66.90
84902;DHT22;75166;51.198;6.010;2024-03-02T01:16:00;10.80;66.90
84902;DHT22;75166;51.198;6.010;2024-03-02T01:18:26;10.70;66.90
84902;DHT22;75166;51.198;6.010;2024-03-02T01:20:52;10.70;66.90
84902;DHT22;75166;51.198;6.010;2024-03-02T01:23:19;10.60;67.00
84902;DHT22;75166;51.198;6.010;2024-03-02T01:25:45;10.60;67.00
84902;DHT22;75166;51.198;6.010;2024-03-02T01:28:12;10.70;67.00
84902;DHT22;75166;51.198;6.010;2024-03-02T01:30:37;10.70;67.00
84902;DHT22;75166;51.198;6.010;2024-03-02T01:33:03;10.70;67.60
84902;DHT22;75166;51.198;6.010;2024-03-02T01:35:33;10.70;67.80
84902;DHT22;75166;51.198;6.010;2024-03-02T01:38:00;10.70;68.10
84902;DHT22;75166;51.198;6.010;2024-03-02T01:40:26;10.70;68.10
84902;DHT22;75166;51.198;6.010;2024-03-02T01:42:52;10.70;68.70
84902;DHT22;75166;51.198;6.010;2024-03-02T01:45:19;10.70;69.40
84902;DHT22;75166;51.198;6.010;2024-03-02T01:47:45;10.70;70.20
84902;DHT22;75166;51.198;6.010;2024-03-02T01:50:14;10.70;70.60
84902;DHT22;75166;51.198;6.010;2024-03-02T01:52:40;10.70;70.60
84902;DHT22;75166;51.198;6.010;2024-03-02T01:55:06;10.60;70.80
84902;DHT22;75166;51.198;6.010;2024-03-02T01:57:33;10.70;70.80
84902;DHT22;75166;51.198;6.010;2024-03-02T02:00:00;10.70;70.70
84902;DHT22;75166;51.198;6.010;2024-03-02T02:02:26;10.70;70.70
84902;DHT22;75166;51.198;6.010;2024-03-02T02:04:51;10.60;70.60
84902;DHT22;75166;51.198;6.010;2024-03-02T02:07:17;10.60;70.60
84902;DHT22;75166;51.198;6.010;2024-03-02T02:09:43;10.60;70.60
84902;DHT22;75166;51.198;6.010;2024-03-02T02:12:09;10.60;70.60
84902;DHT22;75166;51.198;6.010;2024-03-02T02:14:35;10.60;70.60
84902;DHT22;75166;51.198;6.010;2024-03-02T02:17:01;10.60;70.80
84902;DHT22;75166;51.198;6.010;2024-03-02T02:19:27;10.60;70.80
84902;DHT22;75166;51.198;6.010;2024-03-02T02:21:52;10.60;70.90
84902;DHT22;75166;51.198;6.010;2024-03-02T02:24:18;10.60;70.90
84902;DHT22;75166;51.198;6.010;2024-03-02T02:26:43;10.60;70.80
84902;DHT22;75166;51.198;6.010;2024-03-02T02:29:09;10.60;70.90
84902;DHT22;75166;51.198;6.010;2024-03-02T02:31:41;10.60;70.90
84902;DHT22;75166;51.198;6.010;2024-03-02T02:34:07;10.60;70.90
84902;DHT22;75166;51.198;6.010;2024-03-02T02:36:34;10.60;70.90
84902;DHT22;75166;51.198;6.010;2024-03-02T02:39:03;10.50;70.90
84902;DHT22;75166;51.198;6.010;2024-03-02T02:41:29;10.50;70.80
84902;DHT22;75166;51.198;6.010;2024-03-02T02:43:55;10.50;70.80
84902;DHT22;75166;51.198;6.010;2024-03-02T02:46:21;10.50;70.70
84902;DHT22;75166;51.198;6.010;2024-03-02T02:48:46;10.50;70.60
84902;DHT22;75166;51.198;6.010;2024-03-02T02:51:12;10.50;70.60
84902;DHT22;75166;51.198;6.010;2024-03-02T02:53:38;10.50;70.60
84902;DHT22;75166;51.198;6.010;2024-03-02T02:56:06;10.50;70.60
84902;DHT22;75166;51.198;6.010;2024-03-02T02:58:32;10.50;70.50
84902;DHT22;75166;51.198;6.010;2024-03-02T03:00:57;10.50;70.50
84902;DHT22;75166;51.198;6.010;2024-03-02T03:03:23;10.50;70.40
84902;DHT22;75166;51.198;6.010;2024-03-02T03:05:49;10.50;70.30
84902;DHT22;75166;51.198;6.010;2024-03-02T03:08:14;10.50;70.30
84902;DHT22;75166;51.198;6.010;2024-03-02T03:10:41;10.50;70.30
84902;DHT22;75166;51.198;6.010;2024-03-02T03:13:07;10.40;70.30
84902;DHT22;75166;51.198;6.010;2024-03-02T03:15:36;10.40;70.40
84902;DHT22;75166;51.198;6.010;2024-03-02T03:18:04;10.50;70.40
84902;DHT22;75166;51.198;6.010;2024-03-02T03:20:30;10.40;70.40
84902;DHT22;75166;51.198;6.010;2024-03-02T03:22:57;10.40;70.40
84902;DHT22;75166;51.198;6.010;2024-03-02T03:25:23;10.40;70.40
84902;DHT22;75166;51.198;6.010;2024-03-02T03:27:48;10.40;70.30
84902;DHT22;75166;51.198;6.010;2024-03-02T03:30:14;10.40;70.30
84902;DHT22;75166;51.198;6.010;2024-03-02T03:32:40;10.40;70.40
84902;DHT22;75166;51.198;6.010;2024-03-02T03:35:06;10.40;70.40
84902;DHT22;75166;51.198;6.010;2024-03-02T03:37:32;10.40;70.40
84902;DHT22;75166;51.198;6.010;2024-03-02T03:40:02;10.40;70.40
84902;DHT22;75166;51.198;6.010;2024-03-02T03:42:28;10.40;70.50
84902;DHT22;75166;51.198;6.010;2024-03-02T03:44:54;10.30;70.50
84902;DHT22;75166;51.198;6.010;2024-03-02T03:47:19;10.30;70.40
84902;DHT22;75166;51.198;6.010;2024-03-02T03:49:45;10.40;70.50
84902;DHT22;75166;51.198;6.010;2024-03-02T03:52:11;10.30;70.40
84902;DHT22;75166;51.198;6.010;2024-03-02T03:54:37;10.30;70.50
84902;DHT22;75166;51.198;6.010;2024-03-02T03:57:04;10.30;70.50
84902;DHT22;75166;51.198;6.010;2024-03-02T03:59:30;10.30;70.60
84902;DHT22;75166;51.198;6.010;2024-03-02T04:01:56;10.30;70.60
84902;DHT22;75166;51.198;6.010;2024-03-02T04:04:21;10.30;70.80
84902;DHT22;75166;51.198;6.010;2024-03-02T04:06:47;10.30;70.80
84902;DHT22;75166;51.198;6.010;2024-03-02T04:09:13;10.30;70.80
84902;DHT22;75166;51.198;6.010;2024-03-02T04:11:38;10.30;70.80
84902;DHT22;75166;51.198;6.010;2024-03-02T04:14:04;10.30;70.80
84902;DHT22;75166;51.198;6.010;2024-03-02T04:16:31;10.30;70.80
84902;DHT22;75166;51.198;6.010;2024-03-02T04:18:57;10.30;70.80
84902;DHT22;75166;51.198;6.010;2024-03-02T04:21:22;10.30;70.80
84902;DHT22;75166;51.198;6.010;2024-03-02T04:23:48;10.30;70.90
84902;DHT22;75166;51.198;6.010;2024-03-02T04:26:14;10.20;70.90
84902;DHT22;75166;51.198;6.010;2024-03-02T04:28:40;10.20;71.00
84902;DHT22;75166;51.198;6.010;2024-03-02T04:31:05;10.30;71.00
84902;DHT22;75166;51.198;6.010;2024-03-02T04:33:31;10.30;71.00
84902;DHT22;75166;51.198;6.010;2024-03-02T04:35:57;10.20;71.00
84902;DHT22;75166;51.198;6.010;2024-03-02T04:38:23;10.20;71.00
84902;DHT22;75166;51.198;6.010;2024-03-02T04:40:48;10.20;71.00
84902;DHT22;75166;51.198;6.010;2024-03-02T04:43:14;10.20;71.00
84902;DHT22;75166;51.198;6.010;2024-03-02T04:45:42;10.20;71.10
84902;DHT22;75166;51.198;6.010;2024-03-02T04:48:08;10.20;71.20
84902;DHT22;75166;51.198;6.010;2024-03-02T04:50:34;10.20;71.30
84902;DHT22;75166;51.198;6.010;2024-03-02T04:52:59;10.20;71.30
84902;DHT22;75166;51.198;6.010;2024-03-02T04:55:25;10.20;71.30
84902;DHT22;75166;51.198;6.010;2024-03-02T04:58:10;10.20;71.30
84902;DHT22;75166;51.198;6.010;2024-03-02T05:00:36;10.20;71.30
84902;DHT22;75166;51.198;6.010;2024-03-02T05:03:02;10.20;71.50
84902;DHT22;75166;51.198;6.010;2024-03-02T05:05:28;10.20;71.50
84902;DHT22;75166;51.198;6.010;2024-03-02T05:07:53;10.20;71.50
84902;DHT22;75166;51.198;6.010;2024-03-02T05:10:19;10.20;71.60
84902;DHT22;75166;51.198;6.010;2024-03-02T05:12:45;10.10;71.50
84902;DHT22;75166;51.198;6.010;2024-03-02T05:15:12;10.20;71.60
84902;DHT22;75166;51.198;6.010;2024-03-02T05:17:39;10.20;71.70
84902;DHT22;75166;51.198;6.010;2024-03-02T05:20:06;10.20;71.70
84902;DHT22;75166;51.198;6.010;2024-03-02T05:22:36;10.20;71.70
84902;DHT22;75166;51.198;6.010;2024-03-02T05:25:02;10.10;71.60
84902;DHT22;75166;51.198;6.010;2024-03-02T05:27:28;10.10;71.70
84902;DHT22;75166;51.198;6.010;2024-03-02T05:29:53;10.10;71.70
84902;DHT22;75166;51.198;6.010;2024-03-02T05:32:19;10.10;71.70
84902;DHT22;75166;51.198;6.010;2024-03-02T05:34:45;10.10;71.70
84902;DHT22;75166;51.198;6.010;2024-03-02T05:37:10;10.10;71.90
84902;DHT22;75166;51.198;6.010;2024-03-02T05:39:36;10.10;71.90
84902;DHT22;75166;51.198;6.010;2024-03-02T05:42:02;10.10;71.90
84902;DHT22;75166;51.198;6.010;2024-03-02T05:44:28;10.10;71.90
84902;DHT22;75166;51.198;6.010;2024-03-02T05:46:54;10.10;71.90
84902;DHT22;75166;51.198;6.010;2024-03-02T05:49:19;10.10;71.90
84902;DHT22;75166;51.198;6.010;2024-03-02T05:51:45;10.10;71.90
84902;DHT22;75166;51.198;6.010;2024-03-02T05:54:10;10.10;71.90
84902;DHT22;75166;51.198;6.010;2024-03-02T05:56:36;10.10;72.00
84902;DHT22;75166;51.198;6.010;2024-03-02T05:59:02;10.10;72.00
84902;DHT22;75166;51.198;6.010;2024-03-02T06:01:45;10.10;72.00
84902;DHT22;75166;51.198;6.010;2024-03-02T06:04:16;10.10;72.00
84902;DHT22;75166;51.198;6.010;2024-03-02T06:06:42;10.10;72.00
84902;DHT22;75166;51.198;6.010;2024-03-02T06:09:07;10.10;72.00
84902;DHT22;75166;51.198;6.010;2024-03-02T06:11:37;10.10;72.00
84902;DHT22;75166;51.198;6.010;2024-03-02T06:14:03;10.10;72.00
84902;DHT22;75166;51.198;6.010;2024-03-02T06:16:29;10.10;72.00
84902;DHT22;75166;51.198;6.010;2024-03-02T06:18:55;10.00;72.00
84902;DHT22;75166;51.198;6.010;2024-03-02T06:21:26;10.00;72.00
84902;DHT22;75166;51.198;6.010;2024-03-02T06:23:52;10.10;72.80
84902;DHT22;75166;51.198;6.010;2024-03-02T06:26:18;10.10;71.80
84902;DHT22;75166;51.198;6.010;2024-03-02T06:28:44;10.00;71.80
84902;DHT22;75166;51.198;6.010;2024-03-02T06:31:09;10.00;71.70
84902;DHT22;75166;51.198;6.010;2024-03-02T06:33:35;10.00;71.80
84902;DHT22;75166;51.198;6.010;2024-03-02T06:36:01;10.00;71.80
84902;DHT22;75166;51.198;6.010;2024-03-02T06:38:27;10.00;71.80
84902;DHT22;75166;51.198;6.010;2024-03-02T06:40:53;10.00;71.80
84902;DHT22;75166;51.198;6.010;2024-03-02T06:43:19;10.00;71.70
84902;DHT22;75166;51.198;6.010;2024-03-02T06:45:49;10.00;71.60
84902;DHT22;75166;51.198;6.010;2024-03-02T06:48:14;10.00;71.60
84902;DHT22;75166;51.198;6.010;2024-03-02T06:50:44;10.00;71.60
84902;DHT22;75166;51.198;6.010;2024-03-02T06:53:09;10.00;71.40
84902;DHT22;75166;51.198;6.010;2024-03-02T06:55:35;10.00;71.50
84902;DHT22;75166;51.198;6.010;2024-03-02T06:58:00;10.00;71.40
84902;DHT22;75166;51.198;6.010;2024-03-02T07:00:26;9.90;71.50
84902;DHT22;75166;51.198;6.010;2024-03-02T07:02:51;9.90;71.50
84902;DHT22;75166;51.198;6.010;2024-03-02T07:05:17;9.90;71.30
84902;DHT22;75166;51.198;6.010;2024-03-02T07:07:43;9.90;71.00
84902;DHT22;75166;51.198;6.010;2024-03-02T07:10:08;9.90;71.00
84902;DHT22;75166;51.198;6.010;2024-03-02T07:12:34;9.90;71.00
84902;DHT22;75166;51.198;6.010;2024-03-02T07:15:00;9.90;71.00
84902;DHT22;75166;51.198;6.010;2024-03-02T07:17:29;9.90;70.90
84902;DHT22;75166;51.198;6.010;2024-03-02T07:19:54;9.90;70.90
84902;DHT22;75166;51.198;6.010;2024-03-02T07:22:20;9.90;71.00
84902;DHT22;75166;51.198;6.010;2024-03-02T07:24:46;9.90;71.00
84902;DHT22;75166;51.198;6.010;2024-03-02T07:27:12;9.90;71.00
84902;DHT22;75166;51.198;6.010;2024-03-02T07:29:38;9.90;71.00
84902;DHT22;75166;51.198;6.010;2024-03-02T07:32:05;9.90;71.80
84902;DHT22;75166;51.198;6.010;2024-03-02T07:34:30;9.90;71.00
84902;DHT22;75166;51.198;6.010;2024-03-02T07:36:56;9.90;70.90
84902;DHT22;75166;51.198;6.010;2024-03-02T07:39:22;9.90;71.00
84902;DHT22;75166;51.198;6.010;2024-03-02T07:41:47;9.90;71.00
84902;DHT22;75166;51.198;6.010;2024-03-02T07:44:13;9.90;71.00
84902;DHT22;75166;51.198;6.010;2024-03-02T07:46:44;9.80;71.00
84902;DHT22;75166;51.198;6.010;2024-03-02T07:49:12;9.90;71.00
84902;DHT22;75166;51.198;6.010;2024-03-02T07:51:39;9.80;70.80
84902;DHT22;75166;51.198;6.010;2024-03-02T07:54:05;9.80;70.70
84902;DHT22;75166;51.198;6.010;2024-03-02T07:56:30;9.80;71.50
84902;DHT22;75166;51.198;6.010;2024-03-02T07:58:56;9.90;70.60
84902;DHT22;75166;51.198;6.010;2024-03-02T08:01:27;9.80;70.60
84902;DHT22;75166;51.198;6.010;2024-03-02T08:03:56;9.80;70.60
84902;DHT22;75166;51.198;6.010;2024-03-02T08:06:27;9.90;70.70
84902;DHT22;75166;51.198;6.010;2024-03-02T08:08:56;9.80;70.60
84902;DHT22;75166;51.198;6.010;2024-03-02T08:11:23;9.90;70.70
84902;DHT22;75166;51.198;6.010;2024-03-02T08:13:48;9.80;70.60
84902;DHT22;75166;51.198;6.010;2024-03-02T08:16:15;9.80;70.60
84902;DHT22;75166;51.198;6.010;2024-03-02T08:18:42;9.80;70.60
84902;DHT22;75166;51.198;6.010;2024-03-02T08:21:07;9.80;70.60
84902;DHT22;75166;51.198;6.010;2024-03-02T08:23:34;9.80;70.60
84902;DHT22;75166;51.198;6.010;2024-03-02T08:26:00;9.90;70.60
84902;DHT22;75166;51.198;6.010;2024-03-02T08:28:26;9.80;70.60
84902;DHT22;75166;51.198;6.010;2024-03-02T08:30:51;9.90;70.60
84902;DHT22;75166;51.198;6.010;2024-03-02T08:33:17;9.80;70.60
84902;DHT22;75166;51.198;6.010;2024-03-02T08:35:42;9.80;70.50
84902;DHT22;75166;51.198;6.010;2024-03-02T08:38:08;9.90;70.60
84902;DHT22;75166;51.198;6.010;2024-03-02T08:40:34;9.90;70.60
84902;DHT22;75166;51.198;6.010;2024-03-02T08:43:00;9.80;70.40
84902;DHT22;75166;51.198;6.010;2024-03-02T08:45:25;9.90;70.60
84902;DHT22;75166;51.198;6.010;2024-03-02T08:47:51;9.90;70.50
84902;DHT22;75166;51.198;6.010;2024-03-02T08:50:17;9.90;70.40
84902;DHT22;75166;51.198;6.010;2024-03-02T08:52:42;9.90;70.30
84902;DHT22;75166;51.198;6.010;2024-03-02T08:55:08;9.90;70.40
84902;DHT22;75166;51.198;6.010;2024-03-02T08:57:35;9.90;70.40
84902;DHT22;75166;51.198;6.010;2024-03-02T09:00:00;9.90;70.20
84902;DHT22;75166;51.198;6.010;2024-03-02T09:02:26;9.90;70.20
84902;DHT22;75166;51.198;6.010;2024-03-02T09:04:52;9.90;70.20
84902;DHT22;75166;51.198;6.010;2024-03-02T09:07:18;10.00;70.20
84902;DHT22;75166;51.198;6.010;2024-03-02T09:09:43;9.90;70.00
84902;DHT22;75166;51.198;6.010;2024-03-02T09:12:09;10.00;70.00
84902;DHT22;75166;51.198;6.010;2024-03-02T09:14:35;10.00;69.90
84902;DHT22;75166;51.198;6.010;2024-03-02T09:17:02;10.00;69.90
84902;DHT22;75166;51.198;6.010;2024-03-02T09:19:29;10.00;69.90
84902;DHT22;75166;51.198;6.010;2024-03-02T09:21:54;10.00;69.70
84902;DHT22;75166;51.198;6.010;2024-03-02T09:24:21;10.00;69.50
84902;DHT22;75166;51.198;6.010;2024-03-02T09:26:47;10.00;69.30
84902;DHT22;75166;51.198;6.010;2024-03-02T09:29:12;10.10;69.20
84902;DHT22;75166;51.198;6.010;2024-03-02T09:31:42;10.00;69.20
84902;DHT22;75166;51.198;6.010;2024-03-02T09:34:08;10.10;69.30
84902;DHT22;75166;51.198;6.010;2024-03-02T09:36:34;10.10;69.10
84902;DHT22;75166;51.198;6.010;2024-03-02T09:39:00;10.10;68.90
84902;DHT22;75166;51.198;6.010;2024-03-02T09:41:25;10.10;68.80
84902;DHT22;75166;51.198;6.010;2024-03-02T09:43:51;10.10;68.60
84902;DHT22;75166;51.198;6.010;2024-03-02T09:46:18;10.10;68.80
84902;DHT22;75166;51.198;6.010;2024-03-02T09:48:44;10.10;68.60
84902;DHT22;75166;51.198;6.010;2024-03-02T09:51:10;10.10;68.60
84902;DHT22;75166;51.198;6.010;2024-03-02T09:53:37;10.20;68.40
84902;DHT22;75166;51.198;6.010;2024-03-02T09:56:03;10.20;68.20
84902;DHT22;75166;51.198;6.010;2024-03-02T09:58:30;10.20;68.00
84902;DHT22;75166;51.198;6.010;2024-03-02T10:00:55;10.20;67.90
84902;DHT22;75166;51.198;6.010;2024-03-02T10:03:23;10.20;68.00
84902;DHT22;75166;51.198;6.010;2024-03-02T10:05:50;10.30;68.20
84902;DHT22;75166;51.198;6.010;2024-03-02T10:08:15;10.20;68.00
84902;DHT22;75166;51.198;6.010;2024-03-02T10:10:41;10.20;68.00
84902;DHT22;75166;51.198;6.010;2024-03-02T10:13:11;10.30;68.00
84902;DHT22;75166;51.198;6.010;2024-03-02T10:15:38;10.30;68.00
84902;DHT22;75166;51.198;6.010;2024-03-02T10:18:11;10.30;68.10
84902;DHT22;75166;51.198;6.010;2024-03-02T10:20:38;10.40;68.20
84902;DHT22;75166;51.198;6.010;2024-03-02T10:23:13;10.40;68.20
84902;DHT22;75166;51.198;6.010;2024-03-02T10:25:40;10.40;68.20
84902;DHT22;75166;51.198;6.010;2024-03-02T10:28:06;10.40;68.20
84902;DHT22;75166;51.198;6.010;2024-03-02T10:30:35;10.40;68.20
84902;DHT22;75166;51.198;6.010;2024-03-02T10:33:05;10.50;68.20
84902;DHT22;75166;51.198;6.010;2024-03-02T10:35:32;10.50;68.00
84902;DHT22;75166;51.198;6.010;2024-03-02T10:38:01;10.50;67.90
84902;DHT22;75166;51.198;6.010;2024-03-02T10:40:29;10.60;67.90
84902;DHT22;75166;51.198;6.010;2024-03-02T10:42:55;10.60;67.80
84902;DHT22;75166;51.198;6.010;2024-03-02T10:45:21;10.70;67.80
84902;DHT22;75166;51.198;6.010;2024-03-02T10:47:49;10.70;67.80
84902;DHT22;75166;51.198;6.010;2024-03-02T10:50:15;10.70;67.80
84902;DHT22;75166;51.198;6.010;2024-03-02T10:52:41;10.70;67.60
84902;DHT22;75166;51.198;6.010;2024-03-02T10:55:08;10.80;67.40
84902;DHT22;75166;51.198;6.010;2024-03-02T10:57:54;10.80;67.30
84902;DHT22;75166;51.198;6.010;2024-03-02T11:00:26;10.80;67.10
84902;DHT22;75166;51.198;6.010;2024-03-02T11:03:04;10.80;66.90
84902;DHT22;75166;51.198;6.010;2024-03-02T11:05:38;10.90;66.80
84902;DHT22;75166;51.198;6.010;2024-03-02T11:08:08;11.00;66.70
84902;DHT22;75166;51.198;6.010;2024-03-02T11:10:41;11.00;66.70
84902;DHT22;75166;51.198;6.010;2024-03-02T11:13:12;11.00;66.70
84902;DHT22;75166;51.198;6.010;2024-03-02T11:15:40;11.00;66.60
84902;DHT22;75166;51.198;6.010;2024-03-02T11:18:07;11.10;66.50
84902;DHT22;75166;51.198;6.010;2024-03-02T11:20:38;11.10;66.30
84902;DHT22;75166;51.198;6.010;2024-03-02T11:23:09;11.10;66.40
84902;DHT22;75166;51.198;6.010;2024-03-02T11:25:35;11.20;66.50
84902;DHT22;75166;51.198;6.010;2024-03-02T11:28:02;11.20;66.20
84902;DHT22;75166;51.198;6.010;2024-03-02T11:33:03;11.30;66.40
84902;DHT22;75166;51.198;6.010;2024-03-02T11:35:44;11.30;66.30
84902;DHT22;75166;51.198;6.010;2024-03-02T11:38:12;11.40;66.00
84902;DHT22;75166;51.198;6.010;2024-03-02T11:40:41;11.40;65.80
84902;DHT22;75166;51.198;6.010;2024-03-02T11:43:10;11.70;65.90
84902;DHT22;75166;51.198;6.010;2024-03-02T11:45:36;11.50;65.70
84902;DHT22;75166;51.198;6.010;2024-03-02T11:48:06;11.60;65.30
84902;DHT22;75166;51.198;6.010;2024-03-02T11:50:36;11.70;65.20
84902;DHT22;75166;51.198;6.010;2024-03-02T11:53:09;11.70;65.10
84902;DHT22;75166;51.198;6.010;2024-03-02T11:55:36;11.80;65.00
84902;DHT22;75166;51.198;6.010;2024-03-02T11:58:05;11.70;65.00
84902;DHT22;75166;51.198;6.010;2024-03-02T12:00:31;11.80;64.90
84902;DHT22;75166;51.198;6.010;2024-03-02T12:03:15;11.80;64.90
84902;DHT22;75166;51.198;6.010;2024-03-02T12:05:42;11.80;64.90
84902;DHT22;75166;51.198;6.010;2024-03-02T12:08:08;11.80;64.80
84902;DHT22;75166;51.198;6.010;2024-03-02T12:10:35;11.90;64.80
84902;DHT22;75166;51.198;6.010;2024-03-02T12:13:02;11.90;64.70
84902;DHT22;75166;51.198;6.010;2024-03-02T12:15:30;11.90;64.60
84902;DHT22;75166;51.198;6.010;2024-03-02T12:17:57;11.90;64.50
84902;DHT22;75166;51.198;6.010;2024-03-02T12:20:24;11.90;64.40
84902;DHT22;75166;51.198;6.010;2024-03-02T12:22:51;12.00;64.20
84902;DHT22;75166;51.198;6.010;2024-03-02T12:25:23;12.00;64.00
84902;DHT22;75166;51.198;6.010;2024-03-02T12:27:51;12.00;64.10
84902;DHT22;75166;51.198;6.010;2024-03-02T12:30:19;12.00;64.20
84902;DHT22;75166;51.198;6.010;2024-03-02T12:32:47;12.10;64.40
84902;DHT22;75166;51.198;6.010;2024-03-02T12:35:13;12.10;64.30
84902;DHT22;75166;51.198;6.010;2024-03-02T12:37:49;12.10;64.40
84902;DHT22;75166;51.198;6.010;2024-03-02T12:40:17;12.10;64.60
84902;DHT22;75166;51.198;6.010;2024-03-02T12:42:44;12.20;64.40
84902;DHT22;75166;51.198;6.010;2024-03-02T12:45:11;12.20;64.30
84902;DHT22;75166;51.198;6.010;2024-03-02T12:47:37;12.20;64.30
84902;DHT22;75166;51.198;6.010;2024-03-02T12:50:04;12.30;64.30
84902;DHT22;75166;51.198;6.010;2024-03-02T12:52:30;12.20;63.90
84902;DHT22;75166;51.198;6.010;2024-03-02T12:54:59;12.20;64.20
84902;DHT22;75166;51.198;6.010;2024-03-02T12:57:32;12.30;64.40
84902;DHT22;75166;51.198;6.010;2024-03-02T13:00:05;12.30;64.40
84902;DHT22;75166;51.198;6.010;2024-03-02T13:02:35;12.30;64.40
84902;DHT22;75166;51.198;6.010;2024-03-02T13:05:01;12.30;64.30
84902;DHT22;75166;51.198;6.010;2024-03-02T13:07:27;12.40;64.20
84902;DHT22;75166;51.198;6.010;2024-03-02T13:09:53;12.40;64.60
84902;DHT22;75166;51.198;6.010;2024-03-02T13:12:24;12.40;64.50
84902;DHT22;75166;51.198;6.010;2024-03-02T13:14:53;12.40;64.60
84902;DHT22;75166;51.198;6.010;2024-03-02T13:17:22;12.50;64.80
84902;DHT22;75166;51.198;6.010;2024-03-02T13:19:57;12.50;64.60
84902;DHT22;75166;51.198;6.010;2024-03-02T13:22:24;12.60;64.80
84902;DHT22;75166;51.198;6.010;2024-03-02T13:24:50;12.70;64.80
84902;DHT22;75166;51.198;6.010;2024-03-02T13:27:16;12.70;64.80
84902;DHT22;75166;51.198;6.010;2024-03-02T13:29:45;12.80;64.50
84902;DHT22;75166;51.198;6.010;2024-03-02T13:32:11;12.80;64.50
84902;DHT22;75166;51.198;6.010;2024-03-02T13:34:37;12.80;64.50
84902;DHT22;75166;51.198;6.010;2024-03-02T13:37:03;12.90;64.40
84902;DHT22;75166;51.198;6.010;2024-03-02T13:39:30;12.90;64.30
84902;DHT22;75166;51.198;6.010;2024-03-02T13:41:58;13.00;63.90
84902;DHT22;75166;51.198;6.010;2024-03-02T13:44:30;13.00;63.90
84902;DHT22;75166;51.198;6.010;2024-03-02T13:46:55;13.00;63.70
84902;DHT22;75166;51.198;6.010;2024-03-02T13:49:21;13.00;63.70
84902;DHT22;75166;51.198;6.010;2024-03-02T13:51:48;13.20;63.60
84902;DHT22;75166;51.198;6.010;2024-03-02T13:54:14;13.10;63.50
84902;DHT22;75166;51.198;6.010;2024-03-02T13:56:39;13.10;63.40
84902;DHT22;75166;51.198;6.010;2024-03-02T13:59:06;13.10;63.20
84902;DHT22;75166;51.198;6.010;2024-03-02T14:01:32;13.10;63.30
84902;DHT22;75166;51.198;6.010;2024-03-02T14:03:58;13.20;63.60
84902;DHT22;75166;51.198;6.010;2024-03-02T14:06:24;13.20;63.60
84902;DHT22;75166;51.198;6.010;2024-03-02T14:08:52;13.20;63.40
84902;DHT22;75166;51.198;6.010;2024-03-02T14:11:18;13.20;63.60
84902;DHT22;75166;51.198;6.010;2024-03-02T14:13:44;13.30;63.60
84902;DHT22;75166;51.198;6.010;2024-03-02T14:16:15;13.30;63.60
84902;DHT22;75166;51.198;6.010;2024-03-02T14:18:41;13.30;63.40
84902;DHT22;75166;51.198;6.010;2024-03-02T14:21:07;13.30;63.40
84902;DHT22;75166;51.198;6.010;2024-03-02T14:23:32;13.40;63.20
84902;DHT22;75166;51.198;6.010;2024-03-02T14:25:58;13.40;62.90
84902;DHT22;75166;51.198;6.010;2024-03-02T14:28:24;13.50;62.90
84902;DHT22;75166;51.198;6.010;2024-03-02T14:30:50;13.60;63.20
84902;DHT22;75166;51.198;6.010;2024-03-02T14:33:16;13.60;63.20
84902;DHT22;75166;51.198;6.010;2024-03-02T14:35:42;13.60;63.00
84902;DHT22;75166;51.198;6.010;2024-03-02T14:38:08;13.60;62.90
84902;DHT22;75166;51.198;6.010;2024-03-02T14:40:33;13.70;62.90
84902;DHT22;75166;51.198;6.010;2024-03-02T14:42:59;13.70;62.70
84902;DHT22;75166;51.198;6.010;2024-03-02T14:45:25;13.70;62.90
84902;DHT22;75166;51.198;6.010;2024-03-02T14:47:51;13.70;62.80
84902;DHT22;75166;51.198;6.010;2024-03-02T14:50:19;13.70;62.90
84902;DHT22;75166;51.198;6.010;2024-03-02T14:52:48;13.80;63.00
84902;DHT22;75166;51.198;6.010;2024-03-02T14:55:13;13.80;62.80
84902;DHT22;75166;51.198;6.010;2024-03-02T14:57:39;13.80;62.50
84902;DHT22;75166;51.198;6.010;2024-03-02T15:00:05;13.80;62.50
84902;DHT22;75166;51.198;6.010;2024-03-02T15:02:33;13.80;62.70
84902;DHT22;75166;51.198;6.010;2024-03-02T15:04:59;13.80;63.00
84902;DHT22;75166;51.198;6.010;2024-03-02T15:07:25;13.90;62.90
84902;DHT22;75166;51.198;6.010;2024-03-02T15:09:51;13.90;62.40
84902;DHT22;75166;51.198;6.010;2024-03-02T15:12:17;13.90;61.90
84902;DHT22;75166;51.198;6.010;2024-03-02T15:14:43;13.90;61.20
84902;DHT22;75166;51.198;6.010;2024-03-02T15:17:16;14.00;61.20
84902;DHT22;75166;51.198;6.010;2024-03-02T15:19:43;13.90;61.10
84902;DHT22;75166;51.198;6.010;2024-03-02T15:22:14;13.90;60.70
84902;DHT22;75166;51.198;6.010;2024-03-02T15:24:39;14.00;60.70
84902;DHT22;75166;51.198;6.010;2024-03-02T15:27:06;13.90;60.70
84902;DHT22;75166;51.198;6.010;2024-03-02T15:29:36;14.00;60.60
84902;DHT22;75166;51.198;6.010;2024-03-02T15:32:02;14.00;60.60
84902;DHT22;75166;51.198;6.010;2024-03-02T15:34:32;14.00;60.70
84902;DHT22;75166;51.198;6.010;2024-03-02T15:36:59;14.00;60.80
84902;DHT22;75166;51.198;6.010;2024-03-02T15:39:25;14.00;60.90